sensor_id;sensor_type;location;lat;lon;timestamp;P1;durP1;ratioP1;P2;durP2;ratioP2
54953;SDS011;40855;51.072;5.402;2023-01-09T00:01:39;2.05;;;0.38;;
54953;SDS011;40855;51.072;5.402;2023-01-09T00:04:08;0.63;;;0.30;;
54953;SDS011;40855;51.072;5.402;2023-01-09T00:06:34;1.90;;;0.52;;
54953;SDS011;40855;51.072;5.402;2023-01-09T00:09:00;0.82;;;0.30;;
54953;SDS011;40855;51.072;5.402;2023-01-09T00:11:27;2.10;;;0.20;;
54953;SDS011;40855;51.072;5.402;2023-01-09T00:13:53;2.10;;;0.30;;
54953;SDS011;40855;51.072;5.402;2023-01-09T00:16:19;0.30;;;0.30;;
54953;SDS011;40855;51.072;5.402;2023-01-09T00:18:45;0.95;;;0.30;;
54953;SDS011;40855;51.072;5.402;2023-01-09T00:21:11;0.45;;;0.35;;
54953;SDS011;40855;51.072;5.402;2023-01-09T00:23:37;0.55;;;0.20;;
54953;SDS011;40855;51.072;5.402;2023-01-09T00:28:33;1.10;;;0.30;;
54953;SDS011;40855;51.072;5.402;2023-01-09T00:30:59;1.08;;;0.35;;
54953;SDS011;40855;51.072;5.402;2023-01-09T00:33:33;1.25;;;0.40;;
54953;SDS011;40855;51.072;5.402;2023-01-09T00:36:02;0.85;;;0.40;;
54953;SDS011;40855;51.072;5.402;2023-01-09T00:38:28;1.48;;;0.40;;
54953;SDS011;40855;51.072;5.402;2023-01-09T00:40:54;1.17;;;0.50;;
54953;SDS011;40855;51.072;5.402;2023-01-09T00:43:21;3.42;;;0.50;;
54953;SDS011;40855;51.072;5.402;2023-01-09T00:45:51;2.30;;;0.63;;
54953;SDS011;40855;51.072;5.402;2023-01-09T00:48:17;0.77;;;0.60;;
54953;SDS011;40855;51.072;5.402;2023-01-09T00:50:50;1.17;;;0.60;;
54953;SDS011;40855;51.072;5.402;2023-01-09T00:53:18;3.97;;;0.80;;
54953;SDS011;40855;51.072;5.402;2023-01-09T00:55:47;1.70;;;0.68;;
54953;SDS011;40855;51.072;5.402;2023-01-09T00:58:14;1.05;;;0.60;;
54953;SDS011;40855;51.072;5.402;2023-01-09T01:00:40;1.15;;;0.70;;
54953;SDS011;40855;51.072;5.402;2023-01-09T01:03:06;4.68;;;0.80;;
54953;SDS011;40855;51.072;5.402;2023-01-09T01:05:32;1.77;;;0.80;;
54953;SDS011;40855;51.072;5.402;2023-01-09T01:08:17;1.55;;;0.60;;
54953;SDS011;40855;51.072;5.402;2023-01-09T01:10:44;0.60;;;0.50;;
54953;SDS011;40855;51.072;5.402;2023-01-09T01:13:10;1.02;;;0.50;;
54953;SDS011;40855;51.072;5.402;2023-01-09T01:15:37;2.05;;;0.40;;
54953;SDS011;40855;51.072;5.402;2023-01-09T01:18:04;2.35;;;0.43;;
54953;SDS011;40855;51.072;5.402;2023-01-09T01:20:29;0.50;;;0.50;;
54953;SDS011;40855;51.072;5.402;2023-01-09T01:22:55;1.63;;;0.50;;
54953;SDS011;40855;51.072;5.402;2023-01-09T01:25:21;0.30;;;0.30;;
54953;SDS011;40855;51.072;5.402;2023-01-09T01:27:46;1.33;;;0.52;;
54953;SDS011;40855;51.072;5.402;2023-01-09T01:30:13;1.83;;;0.35;;
54953;SDS011;40855;51.072;5.402;2023-01-09T01:32:40;1.00;;;0.30;;
54953;SDS011;40855;51.072;5.402;2023-01-09T01:35:06;0.40;;;0.30;;
54953;SDS011;40855;51.072;5.402;2023-01-09T01:37:33;0.30;;;0.30;;
54953;SDS011;40855;51.072;5.402;2023-01-09T01:39:59;0.75;;;0.38;;
54953;SDS011;40855;51.072;5.402;2023-01-09T01:42:25;1.38;;;0.30;;
54953;SDS011;40855;51.072;5.402;2023-01-09T01:45:12;2.15;;;0.50;;
54953;SDS011;40855;51.072;5.402;2023-01-09T01:53:18;2.78;;;0.73;;
54953;SDS011;40855;51.072;5.402;2023-01-09T01:56:31;2.72;;;0.60;;
54953;SDS011;40855;51.072;5.402;2023-01-09T01:58:30;1.42;;;0.57;;
54953;SDS011;40855;51.072;5.402;2023-01-09T02:00:58;1.20;;;0.63;;
54953;SDS011;40855;51.072;5.402;2023-01-09T02:03:25;2.35;;;0.63;;
54953;SDS011;40855;51.072;5.402;2023-01-09T02:05:52;1.65;;;0.80;;
54953;SDS011;40855;51.072;5.402;2023-01-09T02:08:18;2.05;;;0.60;;
54953;SDS011;40855;51.072;5.402;2023-01-09T02:10:44;6.28;;;0.70;;
54953;SDS011;40855;51.072;5.402;2023-01-09T02:13:11;1.02;;;0.60;;
54953;SDS011;40855;51.072;5.402;2023-01-09T02:15:42;2.92;;;0.80;;
54953;SDS011;40855;51.072;5.402;2023-01-09T02:18:16;2.35;;;0.77;;
54953;SDS011;40855;51.072;5.402;2023-01-09T02:21:07;4.10;;;1.05;;
54953;SDS011;40855;51.072;5.402;2023-01-09T02:31:59;1.80;;;0.73;;
54953;SDS011;40855;51.072;5.402;2023-01-09T02:40:17;4.72;;;0.85;;
54953;SDS011;40855;51.072;5.402;2023-01-09T02:42:44;1.30;;;0.80;;
54953;SDS011;40855;51.072;5.402;2023-01-09T02:45:11;8.20;;;1.02;;
54953;SDS011;40855;51.072;5.402;2023-01-09T02:47:38;4.45;;;0.95;;
54953;SDS011;40855;51.072;5.402;2023-01-09T02:50:08;5.63;;;1.15;;
54953;SDS011;40855;51.072;5.402;2023-01-09T03:09:28;6.38;;;1.10;;
54953;SDS011;40855;51.072;5.402;2023-01-09T03:11:59;4.30;;;0.93;;
54953;SDS011;40855;51.072;5.402;2023-01-09T03:14:36;2.35;;;0.70;;
54953;SDS011;40855;51.072;5.402;2023-01-09T03:17:06;5.03;;;0.95;;
54953;SDS011;40855;51.072;5.402;2023-01-09T03:19:36;4.63;;;1.13;;
54953;SDS011;40855;51.072;5.402;2023-01-09T03:22:03;4.75;;;0.70;;
54953;SDS011;40855;51.072;5.402;2023-01-09T03:24:29;3.78;;;1.05;;
54953;SDS011;40855;51.072;5.402;2023-01-09T03:26:55;3.45;;;0.68;;
54953;SDS011;40855;51.072;5.402;2023-01-09T03:29:20;4.38;;;1.10;;
54953;SDS011;40855;51.072;5.402;2023-01-09T03:31:46;6.47;;;1.15;;
54953;SDS011;40855;51.072;5.402;2023-01-09T03:34:12;3.33;;;1.15;;
54953;SDS011;40855;51.072;5.402;2023-01-09T03:36:38;3.00;;;0.80;;
54953;SDS011;40855;51.072;5.402;2023-01-09T03:39:03;6.95;;;0.80;;
54953;SDS011;40855;51.072;5.402;2023-01-09T03:41:29;4.10;;;0.90;;
54953;SDS011;40855;51.072;5.402;2023-01-09T03:43:55;6.25;;;0.65;;
54953;SDS011;40855;51.072;5.402;2023-01-09T03:46:20;5.28;;;1.00;;
54953;SDS011;40855;51.072;5.402;2023-01-09T03:48:46;3.92;;;0.90;;
54953;SDS011;40855;51.072;5.402;2023-01-09T03:51:12;6.63;;;0.75;;
54953;SDS011;40855;51.072;5.402;2023-01-09T03:53:37;5.72;;;1.60;;
54953;SDS011;40855;51.072;5.402;2023-01-09T03:56:03;9.18;;;0.70;;
54953;SDS011;40855;51.072;5.402;2023-01-09T03:58:29;3.08;;;0.60;;
54953;SDS011;40855;51.072;5.402;2023-01-09T04:00:59;6.07;;;0.63;;
54953;SDS011;40855;51.072;5.402;2023-01-09T04:03:25;3.53;;;0.63;;
54953;SDS011;40855;51.072;5.402;2023-01-09T04:05:51;7.22;;;0.50;;
54953;SDS011;40855;51.072;5.402;2023-01-09T04:08:17;6.38;;;1.40;;
54953;SDS011;40855;51.072;5.402;2023-01-09T04:10:47;3.83;;;0.63;;
54953;SDS011;40855;51.072;5.402;2023-01-09T04:13:13;6.53;;;0.80;;
54953;SDS011;40855;51.072;5.402;2023-01-09T04:15:39;1.80;;;0.55;;
54953;SDS011;40855;51.072;5.402;2023-01-09T04:18:05;2.30;;;0.90;;
54953;SDS011;40855;51.072;5.402;2023-01-09T04:20:31;2.17;;;0.73;;
54953;SDS011;40855;51.072;5.402;2023-01-09T04:22:57;9.60;;;1.08;;
54953;SDS011;40855;51.072;5.402;2023-01-09T04:25:23;8.27;;;0.77;;
54953;SDS011;40855;51.072;5.402;2023-01-09T04:27:50;7.30;;;0.63;;
54953;SDS011;40855;51.072;5.402;2023-01-09T04:30:16;6.53;;;0.73;;
54953;SDS011;40855;51.072;5.402;2023-01-09T04:32:41;2.95;;;0.57;;
54953;SDS011;40855;51.072;5.402;2023-01-09T04:35:07;7.78;;;1.10;;
54953;SDS011;40855;51.072;5.402;2023-01-09T04:37:33;5.65;;;1.20;;
54953;SDS011;40855;51.072;5.402;2023-01-09T04:40:02;6.85;;;1.17;;
54953;SDS011;40855;51.072;5.402;2023-01-09T04:42:35;4.68;;;0.73;;
54953;SDS011;40855;51.072;5.402;2023-01-09T04:45:01;6.88;;;0.90;;
54953;SDS011;40855;51.072;5.402;2023-01-09T04:47:27;5.18;;;0.93;;
54953;SDS011;40855;51.072;5.402;2023-01-09T04:49:55;7.50;;;0.90;;
54953;SDS011;40855;51.072;5.402;2023-01-09T04:52:21;5.57;;;0.88;;
54953;SDS011;40855;51.072;5.402;2023-01-09T04:54:47;6.72;;;1.05;;
54953;SDS011;40855;51.072;5.402;2023-01-09T04:57:12;1.67;;;0.70;;
54953;SDS011;40855;51.072;5.402;2023-01-09T04:59:38;2.85;;;0.80;;
54953;SDS011;40855;51.072;5.402;2023-01-09T05:02:04;9.57;;;1.33;;
54953;SDS011;40855;51.072;5.402;2023-01-09T05:04:30;5.10;;;0.85;;
54953;SDS011;40855;51.072;5.402;2023-01-09T05:06:55;6.60;;;0.80;;
54953;SDS011;40855;51.072;5.402;2023-01-09T05:09:21;4.00;;;1.20;;
54953;SDS011;40855;51.072;5.402;2023-01-09T05:11:47;4.63;;;0.80;;
54953;SDS011;40855;51.072;5.402;2023-01-09T05:14:13;3.30;;;0.75;;
54953;SDS011;40855;51.072;5.402;2023-01-09T05:16:39;2.28;;;0.65;;
54953;SDS011;40855;51.072;5.402;2023-01-09T05:19:04;9.75;;;0.82;;
54953;SDS011;40855;51.072;5.402;2023-01-09T05:21:30;5.90;;;0.60;;
54953;SDS011;40855;51.072;5.402;2023-01-09T05:23:56;4.07;;;0.95;;
54953;SDS011;40855;51.072;5.402;2023-01-09T05:26:22;5.93;;;0.85;;
54953;SDS011;40855;51.072;5.402;2023-01-09T05:28:52;5.22;;;1.30;;
54953;SDS011;40855;51.072;5.402;2023-01-09T05:31:20;13.65;;;1.45;;
54953;SDS011;40855;51.072;5.402;2023-01-09T05:33:47;2.17;;;0.75;;
54953;SDS011;40855;51.072;5.402;2023-01-09T05:36:13;6.95;;;0.75;;
54953;SDS011;40855;51.072;5.402;2023-01-09T05:38:38;1.65;;;0.40;;
54953;SDS011;40855;51.072;5.402;2023-01-09T05:41:04;6.13;;;0.90;;
54953;SDS011;40855;51.072;5.402;2023-01-09T05:43:30;2.78;;;0.52;;
54953;SDS011;40855;51.072;5.402;2023-01-09T05:45:56;5.15;;;0.93;;
54953;SDS011;40855;51.072;5.402;2023-01-09T05:48:21;7.13;;;1.15;;
54953;SDS011;40855;51.072;5.402;2023-01-09T05:50:47;4.63;;;0.68;;
54953;SDS011;40855;51.072;5.402;2023-01-09T05:53:13;5.18;;;0.82;;
54953;SDS011;40855;51.072;5.402;2023-01-09T05:55:38;10.55;;;1.40;;
54953;SDS011;40855;51.072;5.402;2023-01-09T05:58:04;4.57;;;0.85;;
54953;SDS011;40855;51.072;5.402;2023-01-09T06:00:30;8.07;;;1.15;;
54953;SDS011;40855;51.072;5.402;2023-01-09T06:02:56;8.27;;;0.93;;
54953;SDS011;40855;51.072;5.402;2023-01-09T06:05:21;8.07;;;0.85;;
54953;SDS011;40855;51.072;5.402;2023-01-09T06:07:47;6.15;;;0.70;;
54953;SDS011;40855;51.072;5.402;2023-01-09T06:10:13;8.45;;;0.68;;
54953;SDS011;40855;51.072;5.402;2023-01-09T06:12:39;4.25;;;0.85;;
54953;SDS011;40855;51.072;5.402;2023-01-09T06:15:06;4.57;;;1.20;;
54953;SDS011;40855;51.072;5.402;2023-01-09T06:17:32;14.30;;;1.73;;
54953;SDS011;40855;51.072;5.402;2023-01-09T06:19:58;5.35;;;0.80;;
54953;SDS011;40855;51.072;5.402;2023-01-09T06:22:23;9.48;;;1.52;;
54953;SDS011;40855;51.072;5.402;2023-01-09T06:24:49;6.22;;;1.02;;
54953;SDS011;40855;51.072;5.402;2023-01-09T06:27:15;3.88;;;1.17;;
54953;SDS011;40855;51.072;5.402;2023-01-09T06:29:41;2.17;;;0.40;;
54953;SDS011;40855;51.072;5.402;2023-01-09T06:32:06;8.98;;;0.80;;
54953;SDS011;40855;51.072;5.402;2023-01-09T06:34:32;10.13;;;1.05;;
54953;SDS011;40855;51.072;5.402;2023-01-09T06:36:58;8.98;;;0.90;;
54953;SDS011;40855;51.072;5.402;2023-01-09T06:39:23;14.10;;;1.40;;
54953;SDS011;40855;51.072;5.402;2023-01-09T06:41:49;7.80;;;1.25;;
54953;SDS011;40855;51.072;5.402;2023-01-09T06:44:15;1.20;;;0.50;;
54953;SDS011;40855;51.072;5.402;2023-01-09T06:46:40;3.97;;;0.88;;
54953;SDS011;40855;51.072;5.402;2023-01-09T06:49:07;8.23;;;1.42;;
54953;SDS011;40855;51.072;5.402;2023-01-09T06:51:33;6.03;;;0.98;;
54953;SDS011;40855;51.072;5.402;2023-01-09T06:53:58;8.80;;;1.75;;
54953;SDS011;40855;51.072;5.402;2023-01-09T06:56:24;6.70;;;1.13;;
54953;SDS011;40855;51.072;5.402;2023-01-09T06:58:50;8.07;;;0.90;;
54953;SDS011;40855;51.072;5.402;2023-01-09T07:01:15;15.10;;;1.58;;
54953;SDS011;40855;51.072;5.402;2023-01-09T07:03:41;6.30;;;0.60;;
54953;SDS011;40855;51.072;5.402;2023-01-09T07:06:08;7.13;;;0.98;;
54953;SDS011;40855;51.072;5.402;2023-01-09T07:08:33;1.85;;;0.77;;
54953;SDS011;40855;51.072;5.402;2023-01-09T07:10:59;8.80;;;1.20;;
54953;SDS011;40855;51.072;5.402;2023-01-09T07:13:25;3.47;;;0.70;;
54953;SDS011;40855;51.072;5.402;2023-01-09T07:15:50;8.68;;;1.15;;
54953;SDS011;40855;51.072;5.402;2023-01-09T07:18:17;9.35;;;1.40;;
54953;SDS011;40855;51.072;5.402;2023-01-09T07:20:43;3.33;;;0.55;;
54953;SDS011;40855;51.072;5.402;2023-01-09T07:23:10;0.77;;;0.52;;
54953;SDS011;40855;51.072;5.402;2023-01-09T07:25:37;3.40;;;0.82;;
54953;SDS011;40855;51.072;5.402;2023-01-09T07:28:03;2.30;;;0.70;;
54953;SDS011;40855;51.072;5.402;2023-01-09T07:30:29;10.07;;;1.70;;
54953;SDS011;40855;51.072;5.402;2023-01-09T07:32:55;6.40;;;0.85;;
54953;SDS011;40855;51.072;5.402;2023-01-09T07:35:20;5.53;;;1.77;;
54953;SDS011;40855;51.072;5.402;2023-01-09T07:37:46;2.40;;;0.52;;
54953;SDS011;40855;51.072;5.402;2023-01-09T07:40:12;3.95;;;0.95;;
54953;SDS011;40855;51.072;5.402;2023-01-09T07:42:38;7.20;;;0.90;;
54953;SDS011;40855;51.072;5.402;2023-01-09T07:45:04;2.47;;;0.77;;
54953;SDS011;40855;51.072;5.402;2023-01-09T07:47:30;4.22;;;0.73;;
54953;SDS011;40855;51.072;5.402;2023-01-09T07:49:56;4.35;;;0.85;;
54953;SDS011;40855;51.072;5.402;2023-01-09T07:52:22;8.90;;;1.00;;
54953;SDS011;40855;51.072;5.402;2023-01-09T07:54:47;9.95;;;0.70;;
54953;SDS011;40855;51.072;5.402;2023-01-09T07:57:13;2.65;;;0.60;;
54953;SDS011;40855;51.072;5.402;2023-01-09T07:59:39;6.05;;;0.80;;
54953;SDS011;40855;51.072;5.402;2023-01-09T08:02:04;6.05;;;0.95;;
54953;SDS011;40855;51.072;5.402;2023-01-09T08:04:31;7.63;;;0.73;;
54953;SDS011;40855;51.072;5.402;2023-01-09T08:06:57;2.45;;;0.68;;
54953;SDS011;40855;51.072;5.402;2023-01-09T08:09:23;2.85;;;0.50;;
54953;SDS011;40855;51.072;5.402;2023-01-09T08:11:48;3.15;;;0.95;;
54953;SDS011;40855;51.072;5.402;2023-01-09T08:14:14;4.43;;;0.90;;
54953;SDS011;40855;51.072;5.402;2023-01-09T08:16:41;2.83;;;0.68;;
54953;SDS011;40855;51.072;5.402;2023-01-09T08:19:07;8.20;;;1.13;;
54953;SDS011;40855;51.072;5.402;2023-01-09T08:21:35;2.17;;;0.70;;
54953;SDS011;40855;51.072;5.402;2023-01-09T08:24:02;4.68;;;1.00;;
54953;SDS011;40855;51.072;5.402;2023-01-09T08:26:28;4.28;;;0.90;;
54953;SDS011;40855;51.072;5.402;2023-01-09T08:28:53;4.35;;;0.90;;
54953;SDS011;40855;51.072;5.402;2023-01-09T08:31:19;4.20;;;1.00;;
54953;SDS011;40855;51.072;5.402;2023-01-09T08:33:45;5.90;;;1.10;;
54953;SDS011;40855;51.072;5.402;2023-01-09T08:36:11;3.92;;;0.85;;
54953;SDS011;40855;51.072;5.402;2023-01-09T08:38:36;1.95;;;0.90;;
54953;SDS011;40855;51.072;5.402;2023-01-09T08:41:02;4.65;;;0.60;;
54953;SDS011;40855;51.072;5.402;2023-01-09T08:46:32;7.68;;;0.60;;
54953;SDS011;40855;51.072;5.402;2023-01-09T08:49:16;5.25;;;1.00;;
54953;SDS011;40855;51.072;5.402;2023-01-09T08:51:41;5.80;;;1.00;;
54953;SDS011;40855;51.072;5.402;2023-01-09T08:54:07;5.40;;;0.90;;
54953;SDS011;40855;51.072;5.402;2023-01-09T08:56:33;4.53;;;0.65;;
54953;SDS011;40855;51.072;5.402;2023-01-09T08:58:58;4.78;;;1.02;;
54953;SDS011;40855;51.072;5.402;2023-01-09T09:01:24;5.35;;;0.77;;
54953;SDS011;40855;51.072;5.402;2023-01-09T09:03:50;4.28;;;0.52;;
54953;SDS011;40855;51.072;5.402;2023-01-09T09:06:15;6.10;;;0.93;;
54953;SDS011;40855;51.072;5.402;2023-01-09T09:08:41;2.22;;;0.77;;
54953;SDS011;40855;51.072;5.402;2023-01-09T09:11:07;2.30;;;0.80;;
54953;SDS011;40855;51.072;5.402;2023-01-09T09:13:32;3.47;;;1.00;;
54953;SDS011;40855;51.072;5.402;2023-01-09T09:15:58;5.97;;;1.02;;
54953;SDS011;40855;51.072;5.402;2023-01-09T09:18:24;5.75;;;0.98;;
54953;SDS011;40855;51.072;5.402;2023-01-09T09:20:49;2.33;;;1.17;;
54953;SDS011;40855;51.072;5.402;2023-01-09T09:23:15;4.50;;;1.40;;
54953;SDS011;40855;51.072;5.402;2023-01-09T09:25:41;2.92;;;0.80;;
54953;SDS011;40855;51.072;5.402;2023-01-09T09:28:08;13.30;;;1.60;;
54953;SDS011;40855;51.072;5.402;2023-01-09T09:30:34;6.63;;;0.70;;
54953;SDS011;40855;51.072;5.402;2023-01-09T09:33:02;6.63;;;1.40;;
54953;SDS011;40855;51.072;5.402;2023-01-09T09:35:28;8.10;;;0.85;;
54953;SDS011;40855;51.072;5.402;2023-01-09T09:37:57;2.65;;;0.80;;
54953;SDS011;40855;51.072;5.402;2023-01-09T09:40:33;10.00;;;1.50;;
54953;SDS011;40855;51.072;5.402;2023-01-09T09:46:26;1.60;;;0.73;;
54953;SDS011;40855;51.072;5.402;2023-01-09T09:49:37;1.83;;;0.60;;
54953;SDS011;40855;51.072;5.402;2023-01-09T09:52:28;3.28;;;0.70;;
54953;SDS011;40855;51.072;5.402;2023-01-09T09:54:59;3.35;;;0.73;;
54953;SDS011;40855;51.072;5.402;2023-01-09T09:57:31;1.98;;;0.60;;
54953;SDS011;40855;51.072;5.402;2023-01-09T10:00:01;2.47;;;0.73;;
54953;SDS011;40855;51.072;5.402;2023-01-09T10:02:29;2.85;;;0.90;;
54953;SDS011;40855;51.072;5.402;2023-01-09T10:05:08;3.83;;;0.95;;
54953;SDS011;40855;51.072;5.402;2023-01-09T10:07:41;1.77;;;0.60;;
54953;SDS011;40855;51.072;5.402;2023-01-09T10:10:26;4.07;;;0.75;;
54953;SDS011;40855;51.072;5.402;2023-01-09T10:13:00;2.15;;;0.65;;
54953;SDS011;40855;51.072;5.402;2023-01-09T10:16:05;0.50;;;0.30;;
54953;SDS011;40855;51.072;5.402;2023-01-09T10:26:24;1.55;;;0.47;;
54953;SDS011;40855;51.072;5.402;2023-01-09T10:29:07;2.47;;;0.30;;
54953;SDS011;40855;51.072;5.402;2023-01-09T10:34:15;1.80;;;0.38;;
54953;SDS011;40855;51.072;5.402;2023-01-09T10:37:05;0.70;;;0.25;;
54953;SDS011;40855;51.072;5.402;2023-01-09T10:44:50;6.13;;;0.70;;
54953;SDS011;40855;51.072;5.402;2023-01-09T10:47:29;0.55;;;0.38;;
54953;SDS011;40855;51.072;5.402;2023-01-09T10:49:58;1.17;;;0.40;;
54953;SDS011;40855;51.072;5.402;2023-01-09T10:52:32;1.55;;;0.57;;
54953;SDS011;40855;51.072;5.402;2023-01-09T10:55:11;1.48;;;0.30;;
54953;SDS011;40855;51.072;5.402;2023-01-09T10:57:43;0.57;;;0.30;;
54953;SDS011;40855;51.072;5.402;2023-01-09T11:00:20;1.65;;;0.55;;
54953;SDS011;40855;51.072;5.402;2023-01-09T11:02:48;1.35;;;0.68;;
54953;SDS011;40855;51.072;5.402;2023-01-09T11:05:14;1.40;;;0.30;;
54953;SDS011;40855;51.072;5.402;2023-01-09T11:07:54;0.70;;;0.30;;
54953;SDS011;40855;51.072;5.402;2023-01-09T11:13:25;1.45;;;0.75;;
54953;SDS011;40855;51.072;5.402;2023-01-09T11:18:29;1.55;;;0.50;;
54953;SDS011;40855;51.072;5.402;2023-01-09T11:21:04;1.40;;;0.60;;
54953;SDS011;40855;51.072;5.402;2023-01-09T11:23:37;0.82;;;0.43;;
54953;SDS011;40855;51.072;5.402;2023-01-09T11:26:03;0.73;;;0.43;;
54953;SDS011;40855;51.072;5.402;2023-01-09T11:28:29;3.72;;;0.57;;
54953;SDS011;40855;51.072;5.402;2023-01-09T11:33:26;3.33;;;0.40;;
54953;SDS011;40855;51.072;5.402;2023-01-09T11:35:58;1.20;;;0.45;;
54953;SDS011;40855;51.072;5.402;2023-01-09T11:38:31;1.58;;;0.43;;
54953;SDS011;40855;51.072;5.402;2023-01-09T11:41:12;2.83;;;0.30;;
54953;SDS011;40855;51.072;5.402;2023-01-09T11:43:43;2.92;;;0.50;;
54953;SDS011;40855;51.072;5.402;2023-01-09T11:46:28;0.52;;;0.38;;
54953;SDS011;40855;51.072;5.402;2023-01-09T11:48:56;1.55;;;0.60;;
54953;SDS011;40855;51.072;5.402;2023-01-09T11:51:24;2.15;;;0.57;;
54953;SDS011;40855;51.072;5.402;2023-01-09T11:56:29;3.85;;;0.60;;
54953;SDS011;40855;51.072;5.402;2023-01-09T11:58:54;1.98;;;0.60;;
54953;SDS011;40855;51.072;5.402;2023-01-09T12:12:39;0.80;;;0.43;;
54953;SDS011;40855;51.072;5.402;2023-01-09T12:21:10;6.68;;;0.68;;
54953;SDS011;40855;51.072;5.402;2023-01-09T12:44:58;3.15;;;0.98;;
54953;SDS011;40855;51.072;5.402;2023-01-09T12:48:19;0.70;;;0.45;;
54953;SDS011;40855;51.072;5.402;2023-01-09T12:53:41;3.63;;;0.82;;
54953;SDS011;40855;51.072;5.402;2023-01-09T12:56:15;3.00;;;0.90;;
54953;SDS011;40855;51.072;5.402;2023-01-09T12:58:50;3.90;;;0.75;;
54953;SDS011;40855;51.072;5.402;2023-01-09T13:01:32;4.95;;;0.82;;
54953;SDS011;40855;51.072;5.402;2023-01-09T13:04:09;3.90;;;0.95;;
54953;SDS011;40855;51.072;5.402;2023-01-09T13:06:45;2.67;;;0.98;;
54953;SDS011;40855;51.072;5.402;2023-01-09T13:12:01;2.03;;;0.63;;
54953;SDS011;40855;51.072;5.402;2023-01-09T13:17:03;1.98;;;0.60;;
54953;SDS011;40855;51.072;5.402;2023-01-09T13:19:38;7.28;;;1.20;;
54953;SDS011;40855;51.072;5.402;2023-01-09T13:22:04;11.13;;;2.38;;
54953;SDS011;40855;51.072;5.402;2023-01-09T13:27:27;6.43;;;1.20;;
54953;SDS011;40855;51.072;5.402;2023-01-09T13:32:52;6.38;;;1.35;;
54953;SDS011;40855;51.072;5.402;2023-01-09T13:35:46;2.72;;;1.17;;
54953;SDS011;40855;51.072;5.402;2023-01-09T13:38:19;3.55;;;1.10;;
54953;SDS011;40855;51.072;5.402;2023-01-09T13:40:59;4.65;;;1.58;;
54953;SDS011;40855;51.072;5.402;2023-01-09T13:44:04;4.18;;;2.88;;
54953;SDS011;40855;51.072;5.402;2023-01-09T13:46:43;6.22;;;1.40;;
54953;SDS011;40855;51.072;5.402;2023-01-09T13:49:30;3.42;;;1.15;;
54953;SDS011;40855;51.072;5.402;2023-01-09T14:08:02;6.50;;;1.80;;
54953;SDS011;40855;51.072;5.402;2023-01-09T14:13:16;15.07;;;1.80;;
54953;SDS011;40855;51.072;5.402;2023-01-09T14:15:45;11.05;;;2.15;;
54953;SDS011;40855;51.072;5.402;2023-01-09T14:18:14;15.73;;;2.20;;
54953;SDS011;40855;51.072;5.402;2023-01-09T14:20:51;9.02;;;1.77;;
54953;SDS011;40855;51.072;5.402;2023-01-09T14:26:01;11.80;;;2.58;;
54953;SDS011;40855;51.072;5.402;2023-01-09T14:28:28;9.75;;;2.13;;
54953;SDS011;40855;51.072;5.402;2023-01-09T14:38:57;4.30;;;1.80;;
54953;SDS011;40855;51.072;5.402;2023-01-09T14:41:29;8.32;;;2.05;;
54953;SDS011;40855;51.072;5.402;2023-01-09T14:46:51;7.10;;;2.22;;
54953;SDS011;40855;51.072;5.402;2023-01-09T14:52:22;10.65;;;2.22;;
54953;SDS011;40855;51.072;5.402;2023-01-09T14:54:57;5.70;;;2.30;;
54953;SDS011;40855;51.072;5.402;2023-01-09T14:57:26;8.23;;;1.98;;
54953;SDS011;40855;51.072;5.402;2023-01-09T14:59:54;8.48;;;1.77;;
54953;SDS011;40855;51.072;5.402;2023-01-09T15:02:40;7.25;;;1.90;;
54953;SDS011;40855;51.072;5.402;2023-01-09T15:05:10;9.05;;;2.10;;
54953;SDS011;40855;51.072;5.402;2023-01-09T15:07:52;4.32;;;2.10;;
54953;SDS011;40855;51.072;5.402;2023-01-09T15:10:22;5.53;;;1.80;;
54953;SDS011;40855;51.072;5.402;2023-01-09T15:12:52;9.20;;;1.95;;
54953;SDS011;40855;51.072;5.402;2023-01-09T15:15:20;5.20;;;2.03;;
54953;SDS011;40855;51.072;5.402;2023-01-09T15:17:53;6.65;;;2.03;;
54953;SDS011;40855;51.072;5.402;2023-01-09T15:20:22;5.10;;;1.87;;
54953;SDS011;40855;51.072;5.402;2023-01-09T15:22:51;6.93;;;2.05;;
54953;SDS011;40855;51.072;5.402;2023-01-09T15:27:52;6.45;;;2.22;;
54953;SDS011;40855;51.072;5.402;2023-01-09T15:30:26;6.35;;;1.95;;
54953;SDS011;40855;51.072;5.402;2023-01-09T15:32:58;8.32;;;1.77;;
54953;SDS011;40855;51.072;5.402;2023-01-09T15:35:27;5.55;;;2.60;;
54953;SDS011;40855;51.072;5.402;2023-01-09T15:37:53;9.50;;;1.95;;
54953;SDS011;40855;51.072;5.402;2023-01-09T15:40:21;11.88;;;2.20;;
54953;SDS011;40855;51.072;5.402;2023-01-09T15:42:51;8.70;;;2.25;;
54953;SDS011;40855;51.072;5.402;2023-01-09T15:45:23;8.40;;;2.20;;
54953;SDS011;40855;51.072;5.402;2023-01-09T15:47:52;11.50;;;1.73;;
54953;SDS011;40855;51.072;5.402;2023-01-09T15:50:21;4.88;;;1.85;;
54953;SDS011;40855;51.072;5.402;2023-01-09T15:52:51;5.07;;;1.63;;
54953;SDS011;40855;51.072;5.402;2023-01-09T15:55:37;6.18;;;2.05;;
54953;SDS011;40855;51.072;5.402;2023-01-09T15:58:05;6.97;;;2.73;;
54953;SDS011;40855;51.072;5.402;2023-01-09T16:00:56;9.88;;;3.25;;
54953;SDS011;40855;51.072;5.402;2023-01-09T16:03:25;12.18;;;2.40;;
54953;SDS011;40855;51.072;5.402;2023-01-09T16:05:53;6.00;;;2.10;;
54953;SDS011;40855;51.072;5.402;2023-01-09T16:08:33;10.35;;;2.08;;
54953;SDS011;40855;51.072;5.402;2023-01-09T16:11:03;7.75;;;1.80;;
54953;SDS011;40855;51.072;5.402;2023-01-09T16:13:31;10.98;;;1.95;;
54953;SDS011;40855;51.072;5.402;2023-01-09T16:16:07;8.00;;;2.42;;
54953;SDS011;40855;51.072;5.402;2023-01-09T16:18:35;6.63;;;1.95;;
54953;SDS011;40855;51.072;5.402;2023-01-09T16:21:19;4.03;;;2.00;;
54953;SDS011;40855;51.072;5.402;2023-01-09T16:23:49;11.07;;;2.75;;
54953;SDS011;40855;51.072;5.402;2023-01-09T16:26:19;10.82;;;2.40;;
54953;SDS011;40855;51.072;5.402;2023-01-09T16:28:48;13.43;;;2.85;;
54953;SDS011;40855;51.072;5.402;2023-01-09T16:31:24;11.80;;;3.35;;
54953;SDS011;40855;51.072;5.402;2023-01-09T16:33:55;7.10;;;2.78;;
54953;SDS011;40855;51.072;5.402;2023-01-09T16:36:28;14.18;;;3.00;;
54953;SDS011;40855;51.072;5.402;2023-01-09T16:38:55;12.88;;;3.13;;
54953;SDS011;40855;51.072;5.402;2023-01-09T16:41:21;13.15;;;3.50;;
54953;SDS011;40855;51.072;5.402;2023-01-09T16:44:06;13.45;;;2.95;;
54953;SDS011;40855;51.072;5.402;2023-01-09T16:46:39;8.40;;;2.90;;
54953;SDS011;40855;51.072;5.402;2023-01-09T16:49:17;5.25;;;2.20;;
54953;SDS011;40855;51.072;5.402;2023-01-09T16:51:45;5.95;;;2.15;;
54953;SDS011;40855;51.072;5.402;2023-01-09T16:54:12;10.85;;;2.85;;
54953;SDS011;40855;51.072;5.402;2023-01-09T16:56:38;12.20;;;2.78;;
54953;SDS011;40855;51.072;5.402;2023-01-09T16:59:13;10.60;;;2.95;;
54953;SDS011;40855;51.072;5.402;2023-01-09T17:01:44;14.68;;;3.00;;
54953;SDS011;40855;51.072;5.402;2023-01-09T17:04:11;8.18;;;2.90;;
54953;SDS011;40855;51.072;5.402;2023-01-09T17:06:39;6.72;;;2.75;;
54953;SDS011;40855;51.072;5.402;2023-01-09T17:09:16;10.82;;;4.07;;
54953;SDS011;40855;51.072;5.402;2023-01-09T17:11:43;17.55;;;4.30;;
54953;SDS011;40855;51.072;5.402;2023-01-09T17:14:12;8.02;;;3.67;;
54953;SDS011;40855;51.072;5.402;2023-01-09T17:16:38;7.28;;;3.50;;
54953;SDS011;40855;51.072;5.402;2023-01-09T17:19:09;9.18;;;4.00;;
54953;SDS011;40855;51.072;5.402;2023-01-09T17:21:40;12.98;;;4.07;;
54953;SDS011;40855;51.072;5.402;2023-01-09T17:24:06;14.15;;;3.58;;
54953;SDS011;40855;51.072;5.402;2023-01-09T17:26:50;11.70;;;3.83;;
54953;SDS011;40855;51.072;5.402;2023-01-09T17:29:34;9.10;;;3.17;;
54953;SDS011;40855;51.072;5.402;2023-01-09T17:32:00;5.78;;;3.38;;
54953;SDS011;40855;51.072;5.402;2023-01-09T17:34:27;11.48;;;3.55;;
54953;SDS011;40855;51.072;5.402;2023-01-09T17:36:52;7.80;;;3.42;;
54953;SDS011;40855;51.072;5.402;2023-01-09T17:39:19;10.68;;;3.00;;
54953;SDS011;40855;51.072;5.402;2023-01-09T17:41:46;7.97;;;2.80;;